sensor_id;sensor_type;location;lat;lon;timestamp;pressure;altitude;pressure_sealevel;temperature;humidity
42007;BME280;27696;42.704;23.304;2022-09-17T08:21:04;94307.13;;;40.81;24.18
42007;BME280;27696;42.704;23.304;2022-09-17T08:26:20;94315.16;;;33.99;nan
42007;BME280;27696;42.704;23.304;2022-09-17T08:29:45;94303.13;;;35.60;31.85
42007;BME280;27696;42.704;23.304;2022-09-17T08:32:10;94300.13;;;36.27;30.35
42007;BME280;27696;42.704;23.304;2022-09-17T08:34:36;94296.09;;;36.54;30.23
42007;BME280;27696;42.704;23.304;2022-09-17T08:37:01;94300.00;;;35.77;29.71
42007;BME280;27696;42.704;23.304;2022-09-17T08:39:27;94298.06;;;35.92;30.08
42007;BME280;27696;42.704;23.304;2022-09-17T08:44:42;94298.28;;;35.72;30.26
42007;BME280;27696;42.704;23.304;2022-09-17T08:47:14;94286.88;;;35.80;30.04
42007;BME280;27696;42.704;23.304;2022-09-17T08:49:42;94287.72;;;36.42;28.85
42007;BME280;27696;42.704;23.304;2022-09-17T08:54:49;94292.59;;;36.91;28.42
42007;BME280;27696;42.704;23.304;2022-09-17T08:57:28;94302.38;;;36.66;28.79
42007;BME280;27696;42.704;23.304;2022-09-17T09:00:05;94293.16;;;36.64;28.67
42007;BME280;27696;42.704;23.304;2022-09-17T09:02:43;94292.09;;;35.86;29.49
42007;BME280;27696;42.704;23.304;2022-09-17T09:05:17;94291.25;;;35.71;29.89
42007;BME280;27696;42.704;23.304;2022-09-17T09:07:46;94284.41;;;35.51;30.06
42007;BME280;27696;42.704;23.304;2022-09-17T09:10:19;94301.19;;;35.51;29.44
42007;BME280;27696;42.704;23.304;2022-09-17T09:12:47;94284.94;;;35.83;29.30
42007;BME280;27696;42.704;23.304;2022-09-17T09:17:46;94313.47;;;35.69;30.49
42007;BME280;27696;42.704;23.304;2022-09-17T09:20:16;94320.44;;;35.01;31.62
42007;BME280;27696;42.704;23.304;2022-09-17T09:22:49;94321.75;;;35.33;31.70
42007;BME280;27696;42.704;23.304;2022-09-17T09:25:19;94316.91;;;35.34;31.99
42007;BME280;27696;42.704;23.304;2022-09-17T09:30:18;94344.72;;;35.10;33.55
42007;BME280;27696;42.704;23.304;2022-09-17T09:37:50;94371.28;;;35.33;34.07
42007;BME280;27696;42.704;23.304;2022-09-17T09:40:21;94358.97;;;35.48;31.86
42007;BME280;27696;42.704;23.304;2022-09-17T09:42:47;94372.28;;;34.51;32.60
42007;BME280;27696;42.704;23.304;2022-09-17T10:02:46;94356.59;;;32.75;36.79
42007;BME280;27696;42.704;23.304;2022-09-17T10:05:12;94359.34;;;32.65;37.37
42007;BME280;27696;42.704;23.304;2022-09-17T10:07:44;94340.81;;;33.07;37.12
42007;BME280;27696;42.704;23.304;2022-09-17T10:10:10;94290.41;;;31.87;38.51
42007;BME280;27696;42.704;23.304;2022-09-17T10:12:35;94280.50;;;31.66;38.90
42007;BME280;27696;42.704;23.304;2022-09-17T10:15:17;94274.88;;;32.31;38.26
42007;BME280;27696;42.704;23.304;2022-09-17T10:17:45;94274.00;;;32.28;38.35
42007;BME280;27696;42.704;23.304;2022-09-17T10:21:44;94248.03;;;31.04;40.96
42007;BME280;27696;42.704;23.304;2022-09-17T10:24:30;94224.25;;;30.83;41.21
42007;BME280;27696;42.704;23.304;2022-09-17T10:27:14;94236.16;;;30.76;41.26
42007;BME280;27696;42.704;23.304;2022-09-17T10:29:45;94249.38;;;30.50;41.72
42007;BME280;27696;42.704;23.304;2022-09-17T10:32:18;94255.28;;;31.17;41.03
42007;BME280;27696;42.704;23.304;2022-09-17T10:35:00;94246.50;;;30.40;42.38
42007;BME280;27696;42.704;23.304;2022-09-17T10:38:01;94268.25;;;30.97;41.18
42007;BME280;27696;42.704;23.304;2022-09-17T10:45:23;94256.91;;;31.85;39.54
42007;BME280;27696;42.704;23.304;2022-09-17T10:47:49;94266.69;;;33.21;37.39
42007;BME280;27696;42.704;23.304;2022-09-17T10:50:15;94244.97;;;33.49;35.85
42007;BME280;27696;42.704;23.304;2022-09-17T10:52:49;94252.03;;;32.22;38.09
42007;BME280;27696;42.704;23.304;2022-09-17T10:58:02;94236.25;;;30.33;41.29
42007;BME280;27696;42.704;23.304;2022-09-17T11:06:06;94259.28;;;31.61;39.27
42007;BME280;27696;42.704;23.304;2022-09-17T11:11:08;94259.19;;;32.06;37.11
42007;BME280;27696;42.704;23.304;2022-09-17T11:16:09;94254.66;;;32.10;38.40
42007;BME280;27696;42.704;23.304;2022-09-17T11:18:41;94250.47;;;32.49;36.97
42007;BME280;27696;42.704;23.304;2022-09-17T11:21:12;94271.56;;;32.91;36.79
42007;BME280;27696;42.704;23.304;2022-09-17T11:37:02;94260.56;;;31.87;38.04
42007;BME280;27696;42.704;23.304;2022-09-17T11:42:08;94253.75;;;31.98;38.57
42007;BME280;27696;42.704;23.304;2022-09-17T11:44:55;94246.63;;;32.15;38.76
42007;BME280;27696;42.704;23.304;2022-09-17T11:47:27;94246.16;;;32.08;38.58
42007;BME280;27696;42.704;23.304;2022-09-17T11:52:26;94219.88;;;32.09;38.02
42007;BME280;27696;42.704;23.304;2022-09-17T11:57:20;94208.78;;;32.68;36.50
42007;BME280;27696;42.704;23.304;2022-09-17T12:02:22;94200.03;;;33.33;35.10
42007;BME280;27696;42.704;23.304;2022-09-17T12:09:52;94190.31;;;32.04;36.58
42007;BME280;27696;42.704;23.304;2022-09-17T12:12:19;94207.53;;;31.93;36.67
42007;BME280;27696;42.704;23.304;2022-09-17T12:15:03;94207.53;;;31.93;35.30
42007;BME280;27696;42.704;23.304;2022-09-17T12:17:43;94208.50;;;32.64;34.35
42007;BME280;27696;42.704;23.304;2022-09-17T12:20:21;94216.84;;;32.84;35.27
42007;BME280;27696;42.704;23.304;2022-09-17T12:22:48;94205.69;;;32.94;34.99
42007;BME280;27696;42.704;23.304;2022-09-17T12:25:15;94203.84;;;31.80;38.43
42007;BME280;27696;42.704;23.304;2022-09-17T12:27:42;94201.06;;;32.28;36.43
42007;BME280;27696;42.704;23.304;2022-09-17T12:30:16;94188.88;;;32.23;38.10
42007;BME280;27696;42.704;23.304;2022-09-17T12:35:24;94202.13;;;31.85;39.50
42007;BME280;27696;42.704;23.304;2022-09-17T12:40:50;94181.78;;;31.08;41.17
42007;BME280;27696;42.704;23.304;2022-09-17T12:46:05;94178.34;;;31.17;41.18
42007;BME280;27696;42.704;23.304;2022-09-17T12:53:31;94185.59;;;31.77;40.66
42007;BME280;27696;42.704;23.304;2022-09-17T12:56:01;94184.19;;;31.59;40.65
42007;BME280;27696;42.704;23.304;2022-09-17T13:01:18;94177.38;;;32.26;38.74
42007;BME280;27696;42.704;23.304;2022-09-17T13:03:42;94162.69;;;32.06;39.18
42007;BME280;27696;42.704;23.304;2022-09-17T13:08:57;94124.16;;;30.79;41.82
42007;BME280;27696;42.704;23.304;2022-09-17T13:14:00;94156.81;;;31.26;40.24
42007;BME280;27696;42.704;23.304;2022-09-17T13:16:35;94147.84;;;31.55;40.55
42007;BME280;27696;42.704;23.304;2022-09-17T13:21:54;94166.09;;;31.21;40.56
42007;BME280;27696;42.704;23.304;2022-09-17T13:24:24;94161.47;;;31.70;40.53
42007;BME280;27696;42.704;23.304;2022-09-17T13:26:52;94155.13;;;31.60;40.50
42007;BME280;27696;42.704;23.304;2022-09-17T13:32:02;94136.09;;;32.23;39.66
42007;BME280;27696;42.704;23.304;2022-09-17T13:34:28;94128.63;;;31.29;40.91
42007;BME280;27696;42.704;23.304;2022-09-17T13:36:54;94127.00;;;31.26;40.44
42007;BME280;27696;42.704;23.304;2022-09-17T13:39:34;94130.03;;;31.58;40.41
42007;BME280;27696;42.704;23.304;2022-09-17T13:42:01;94120.78;;;31.55;40.72
42007;BME280;27696;42.704;23.304;2022-09-17T13:44:28;94116.06;;;31.75;40.12
42007;BME280;27696;42.704;23.304;2022-09-17T13:46:54;94104.84;;;31.36;40.40
42007;BME280;27696;42.704;23.304;2022-09-17T13:49:32;94076.78;;;30.85;41.79
42007;BME280;27696;42.704;23.304;2022-09-17T13:51:57;94065.88;;;30.97;40.69
42007;BME280;27696;42.704;23.304;2022-09-17T13:54:23;94063.47;;;30.83;40.95
42007;BME280;27696;42.704;23.304;2022-09-17T13:57:10;94047.88;;;31.15;40.86
42007;BME280;27696;42.704;23.304;2022-09-17T13:59:37;94052.50;;;30.76;41.11
42007;BME280;27696;42.704;23.304;2022-09-17T14:02:24;94054.94;;;31.56;40.10
42007;BME280;27696;42.704;23.304;2022-09-17T14:04:49;94046.41;;;31.14;41.10
42007;BME280;27696;42.704;23.304;2022-09-17T14:15:02;94071.41;;;31.44;40.00
42007;BME280;27696;42.704;23.304;2022-09-17T14:17:48;94056.59;;;30.30;41.46
42007;BME280;27696;42.704;23.304;2022-09-17T14:20:15;94050.00;;;30.70;41.92
42007;BME280;27696;42.704;23.304;2022-09-17T14:22:41;94056.50;;;30.82;41.84
42007;BME280;27696;42.704;23.304;2022-09-17T14:25:14;94058.03;;;31.03;41.30
42007;BME280;27696;42.704;23.304;2022-09-17T14:27:50;94068.88;;;30.81;41.36
42007;BME280;27696;42.704;23.304;2022-09-17T14:30:21;94082.31;;;31.12;41.08
42007;BME280;27696;42.704;23.304;2022-09-17T14:33:00;94058.38;;;31.27;40.88
42007;BME280;27696;42.704;23.304;2022-09-17T14:37:54;94033.88;;;30.04;42.30
42007;BME280;27696;42.704;23.304;2022-09-17T14:40:21;94015.94;;;29.87;42.80
42007;BME280;27696;42.704;23.304;2022-09-17T14:42:48;93992.69;;;30.45;41.07
42007;BME280;27696;42.704;23.304;2022-09-17T14:45:25;93954.22;;;30.77;41.30
42007;BME280;27696;42.704;23.304;2022-09-17T14:50:35;94039.09;;;30.72;39.60
42007;BME280;27696;42.704;23.304;2022-09-17T14:53:06;94038.63;;;31.79;37.39
42007;BME280;27696;42.704;23.304;2022-09-17T14:55:31;94023.63;;;30.79;39.93
42007;BME280;27696;42.704;23.304;2022-09-17T14:57:57;94022.47;;;30.72;40.26
42007;BME280;27696;42.704;23.304;2022-09-17T15:00:33;94030.41;;;31.05;40.49
42007;BME280;27696;42.704;23.304;2022-09-17T15:02:58;94012.63;;;30.98;40.21
42007;BME280;27696;42.704;23.304;2022-09-17T15:05:28;94015.50;;;29.21;42.17
42007;BME280;27696;42.704;23.304;2022-09-17T15:08:17;94006.03;;;29.49;42.71
42007;BME280;27696;42.704;23.304;2022-09-17T15:13:26;93996.31;;;29.93;42.17
42007;BME280;27696;42.704;23.304;2022-09-17T15:15:53;93998.56;;;29.59;42.08
42007;BME280;27696;42.704;23.304;2022-09-17T15:18:19;93991.53;;;29.23;41.98
42007;BME280;27696;42.704;23.304;2022-09-17T15:20:46;93971.06;;;29.44;41.97
42007;BME280;27696;42.704;23.304;2022-09-17T15:23:17;93978.19;;;29.64;41.83
42007;BME280;27696;42.704;23.304;2022-09-17T15:25:44;93977.47;;;29.99;41.46
42007;BME280;27696;42.704;23.304;2022-09-17T15:28:18;93985.19;;;29.65;42.14
42007;BME280;27696;42.704;23.304;2022-09-17T15:30:48;93978.34;;;30.56;39.58
42007;BME280;27696;42.704;23.304;2022-09-17T15:33:14;93980.38;;;31.03;39.16
42007;BME280;27696;42.704;23.304;2022-09-17T15:35:43;93974.31;;;30.77;40.05
42007;BME280;27696;42.704;23.304;2022-09-17T15:38:31;93982.25;;;31.00;39.39
42007;BME280;27696;42.704;23.304;2022-09-17T15:41:10;93962.47;;;31.83;37.54
42007;BME280;27696;42.704;23.304;2022-09-17T15:43:36;93962.22;;;29.90;40.42
42007;BME280;27696;42.704;23.304;2022-09-17T15:48:47;93976.22;;;30.75;38.47
42007;BME280;27696;42.704;23.304;2022-09-17T15:51:25;93976.44;;;31.06;38.80
42007;BME280;27696;42.704;23.304;2022-09-17T15:53:56;94000.88;;;31.37;37.64
42007;BME280;27696;42.704;23.304;2022-09-17T15:56:31;93988.28;;;31.16;38.43
42007;BME280;27696;42.704;23.304;2022-09-17T16:04:16;93955.84;;;30.90;39.08
42007;BME280;27696;42.704;23.304;2022-09-17T16:06:52;93939.50;;;30.94;39.07
42007;BME280;27696;42.704;23.304;2022-09-17T16:12:02;93943.03;;;31.04;38.92
42007;BME280;27696;42.704;23.304;2022-09-17T16:14:27;93947.47;;;30.70;39.65
42007;BME280;27696;42.704;23.304;2022-09-17T16:16:53;93939.22;;;31.09;39.31
42007;BME280;27696;42.704;23.304;2022-09-17T16:19:20;93932.28;;;30.61;40.25
42007;BME280;27696;42.704;23.304;2022-09-17T16:21:45;93929.97;;;30.03;38.76
42007;BME280;27696;42.704;23.304;2022-09-17T16:24:10;93945.91;;;30.12;39.63
42007;BME280;27696;42.704;23.304;2022-09-17T16:26:36;93937.59;;;31.06;37.22
42007;BME280;27696;42.704;23.304;2022-09-17T16:29:03;93927.53;;;31.01;38.50
42007;BME280;27696;42.704;23.304;2022-09-17T16:31:29;93922.41;;;30.87;37.92
42007;BME280;27696;42.704;23.304;2022-09-17T16:33:54;93922.91;;;31.23;36.87
42007;BME280;27696;42.704;23.304;2022-09-17T16:36:20;93927.09;;;31.04;37.64
42007;BME280;27696;42.704;23.304;2022-09-17T16:38:45;93917.03;;;31.09;38.59
42007;BME280;27696;42.704;23.304;2022-09-17T16:41:11;93895.16;;;30.94;39.19
42007;BME280;27696;42.704;23.304;2022-09-17T16:43:36;93881.97;;;30.65;39.85
42007;BME280;27696;42.704;23.304;2022-09-17T16:48:27;93873.69;;;30.27;39.60
42007;BME280;27696;42.704;23.304;2022-09-17T16:50:53;93878.91;;;29.69;41.61
42007;BME280;27696;42.704;23.304;2022-09-17T16:53:18;93882.84;;;30.57;39.32
42007;BME280;27696;42.704;23.304;2022-09-17T16:55:43;93883.66;;;30.50;39.02
42007;BME280;27696;42.704;23.304;2022-09-17T16:58:08;93863.03;;;29.24;42.48
42007;BME280;27696;42.704;23.304;2022-09-17T17:00:34;93881.44;;;30.39;39.87
42007;BME280;27696;42.704;23.304;2022-09-17T17:03:01;93889.28;;;30.70;39.52
42007;BME280;27696;42.704;23.304;2022-09-17T17:05:26;93906.66;;;30.43;39.92
42007;BME280;27696;42.704;23.304;2022-09-17T17:07:52;93914.69;;;30.96;39.52
42007;BME280;27696;42.704;23.304;2022-09-17T17:10:19;93923.91;;;30.51;40.29
42007;BME280;27696;42.704;23.304;2022-09-17T17:12:44;93941.25;;;30.99;39.48
42007;BME280;27696;42.704;23.304;2022-09-17T17:15:09;93942.50;;;30.68;40.28
42007;BME280;27696;42.704;23.304;2022-09-17T17:17:35;93932.41;;;31.20;39.27
42007;BME280;27696;42.704;23.304;2022-09-17T17:20:01;93936.53;;;30.35;40.54
42007;BME280;27696;42.704;23.304;2022-09-17T17:22:29;93951.59;;;30.88;39.75
42007;BME280;27696;42.704;23.304;2022-09-17T17:24:54;93953.00;;;31.37;38.26
42007;BME280;27696;42.704;23.304;2022-09-17T17:27:19;93947.72;;;31.11;39.19
42007;BME280;27696;42.704;23.304;2022-09-17T17:29:44;93916.22;;;29.95;41.42
42007;BME280;27696;42.704;23.304;2022-09-17T17:32:10;93912.34;;;30.82;39.49
42007;BME280;27696;42.704;23.304;2022-09-17T17:34:35;93916.56;;;30.83;38.46
42007;BME280;27696;42.704;23.304;2022-09-17T17:37:01;93913.56;;;31.18;38.80
42007;BME280;27696;42.704;23.304;2022-09-17T17:39:26;93930.47;;;31.03;39.13
42007;BME280;27696;42.704;23.304;2022-09-17T17:41:51;93949.47;;;31.16;38.73
42007;BME280;27696;42.704;23.304;2022-09-17T17:44:20;93937.22;;;30.53;40.17
42007;BME280;27696;42.704;23.304;2022-09-17T17:46:45;93942.31;;;30.56;40.00
42007;BME280;27696;42.704;23.304;2022-09-17T17:49:10;93967.88;;;30.65;39.47
42007;BME280;27696;42.704;23.304;2022-09-17T17:51:36;93980.78;;;30.99;38.80
42007;BME280;27696;42.704;23.304;2022-09-17T17:54:01;93982.06;;;31.45;37.96
42007;BME280;27696;42.704;23.304;2022-09-17T17:56:26;93982.47;;;31.12;38.72
42007;BME280;27696;42.704;23.304;2022-09-17T17:58:55;93977.09;;;30.77;38.79
42007;BME280;27696;42.704;23.304;2022-09-17T18:01:23;93980.47;;;29.93;40.54
42007;BME280;27696;42.704;23.304;2022-09-17T18:03:49;93980.75;;;30.80;39.04
42007;BME280;27696;42.704;23.304;2022-09-17T18:06:14;93986.22;;;31.07;37.13
42007;BME280;27696;42.704;23.304;2022-09-17T18:08:40;93980.41;;;30.56;39.21
42007;BME280;27696;42.704;23.304;2022-09-17T18:11:06;93956.34;;;30.04;40.32
42007;BME280;27696;42.704;23.304;2022-09-17T18:13:33;93961.22;;;30.87;37.86
42007;BME280;27696;42.704;23.304;2022-09-17T18:15:59;93964.16;;;30.90;38.09
42007;BME280;27696;42.704;23.304;2022-09-17T18:18:26;93976.03;;;31.19;37.61
42007;BME280;27696;42.704;23.304;2022-09-17T18:20:58;93970.50;;;31.59;36.61
42007;BME280;27696;42.704;23.304;2022-09-17T18:23:23;93974.09;;;30.93;37.71
42007;BME280;27696;42.704;23.304;2022-09-17T18:25:55;93974.69;;;31.01;38.23
42007;BME280;27696;42.704;23.304;2022-09-17T18:28:21;93971.81;;;30.71;38.76
42007;BME280;27696;42.704;23.304;2022-09-17T18:30:47;93974.53;;;30.24;39.40
42007;BME280;27696;42.704;23.304;2022-09-17T18:33:15;93971.88;;;30.91;38.22
42007;BME280;27696;42.704;23.304;2022-09-17T18:35:40;93978.53;;;31.25;37.75
42007;BME280;27696;42.704;23.304;2022-09-17T18:38:06;93979.13;;;31.24;36.65
42007;BME280;27696;42.704;23.304;2022-09-17T18:40:31;93973.13;;;31.96;35.24
42007;BME280;27696;42.704;23.304;2022-09-17T18:42:57;93965.41;;;31.36;36.98
42007;BME280;27696;42.704;23.304;2022-09-17T18:45:22;93961.31;;;31.37;37.19
42007;BME280;27696;42.704;23.304;2022-09-17T18:47:48;93971.31;;;31.02;37.42
42007;BME280;27696;42.704;23.304;2022-09-17T18:50:13;93956.75;;;31.02;37.48
42007;BME280;27696;42.704;23.304;2022-09-17T18:52:38;93960.41;;;30.57;38.56
42007;BME280;27696;42.704;23.304;2022-09-17T18:55:04;93965.16;;;30.84;38.13
42007;BME280;27696;42.704;23.304;2022-09-17T18:57:29;93958.06;;;30.54;38.74
42007;BME280;27696;42.704;23.304;2022-09-17T18:59:55;93956.34;;;30.04;39.31
42007;BME280;27696;42.704;23.304;2022-09-17T19:02:22;93970.13;;;30.21;38.75
42007;BME280;27696;42.704;23.304;2022-09-17T19:04:47;93971.22;;;30.36;38.23
42007;BME280;27696;42.704;23.304;2022-09-17T19:07:13;93967.59;;;31.37;35.86
42007;BME280;27696;42.704;23.304;2022-09-17T19:09:38;93967.88;;;31.22;37.15
42007;BME280;27696;42.704;23.304;2022-09-17T19:12:03;93957.16;;;31.08;36.92
42007;BME280;27696;42.704;23.304;2022-09-17T19:14:28;93969.50;;;30.40;38.49
42007;BME280;27696;42.704;23.304;2022-09-17T19:16:54;93959.00;;;30.76;37.92
42007;BME280;27696;42.704;23.304;2022-09-17T19:19:20;93959.78;;;30.49;38.58
42007;BME280;27696;42.704;23.304;2022-09-17T19:21:47;93962.78;;;30.06;38.95
42007;BME280;27696;42.704;23.304;2022-09-17T19:24:12;93960.91;;;30.73;36.97
42007;BME280;27696;42.704;23.304;2022-09-17T19:26:37;93968.47;;;30.73;37.83
42007;BME280;27696;42.704;23.304;2022-09-17T19:29:03;93974.03;;;30.46;37.02
42007;BME280;27696;42.704;23.304;2022-09-17T19:31:30;93975.03;;;30.78;38.07
42007;BME280;27696;42.704;23.304;2022-09-17T19:33:55;93962.84;;;31.00;37.12
42007;BME280;27696;42.704;23.304;2022-09-17T19:36:22;93934.53;;;30.45;38.10
42007;BME280;27696;42.704;23.304;2022-09-17T19:38:47;93946.41;;;30.28;37.73
42007;BME280;27696;42.704;23.304;2022-09-17T19:41:14;93974.53;;;29.97;37.24
42007;BME280;27696;42.704;23.304;2022-09-17T19:43:39;93953.47;;;30.76;35.99
42007;BME280;27696;42.704;23.304;2022-09-17T19:46:05;93959.00;;;30.76;36.14
42007;BME280;27696;42.704;23.304;2022-09-17T19:48:32;93950.06;;;30.31;37.53
42007;BME280;27696;42.704;23.304;2022-09-17T19:50:59;93965.41;;;30.69;36.06
42007;BME280;27696;42.704;23.304;2022-09-17T19:53:25;93967.69;;;31.10;35.29
42007;BME280;27696;42.704;23.304;2022-09-17T19:55:50;93957.66;;;31.14;35.69
42007;BME280;27696;42.704;23.304;2022-09-17T19:58:15;93941.16;;;29.95;38.12
42007;BME280;27696;42.704;23.304;2022-09-17T20:00:41;93934.50;;;28.17;41.29
42007;BME280;27696;42.704;23.304;2022-09-17T20:03:06;93939.06;;;29.68;38.84
42007;BME280;27696;42.704;23.304;2022-09-17T20:05:32;93937.75;;;30.88;36.32
42007;BME280;27696;42.704;23.304;2022-09-17T20:07:59;93934.59;;;29.73;38.98
42007;BME280;27696;42.704;23.304;2022-09-17T20:10:24;93917.03;;;29.25;39.68
42007;BME280;27696;42.704;23.304;2022-09-17T20:12:49;93918.16;;;29.57;39.04
42007;BME280;27696;42.704;23.304;2022-09-17T20:15:15;93913.25;;;29.65;39.09
42007;BME280;27696;42.704;23.304;2022-09-17T20:17:40;93927.72;;;30.19;37.47
42007;BME280;27696;42.704;23.304;2022-09-17T20:20:05;93918.16;;;29.75;38.92
42007;BME280;27696;42.704;23.304;2022-09-17T20:22:31;93919.31;;;29.54;39.13
42007;BME280;27696;42.704;23.304;2022-09-17T20:24:56;93922.03;;;30.17;37.69
42007;BME280;27696;42.704;23.304;2022-09-17T20:27:22;93918.44;;;29.97;38.60
42007;BME280;27696;42.704;23.304;2022-09-17T20:29:47;93922.25;;;30.01;38.59
42007;BME280;27696;42.704;23.304;2022-09-17T20:32:12;93925.78;;;29.84;38.78
42007;BME280;27696;42.704;23.304;2022-09-17T20:34:38;93934.63;;;30.00;37.99
42007;BME280;27696;42.704;23.304;2022-09-17T20:37:03;93923.44;;;30.08;37.90
42007;BME280;27696;42.704;23.304;2022-09-17T20:39:29;93943.56;;;29.63;38.91
42007;BME280;27696;42.704;23.304;2022-09-17T20:41:54;93941.31;;;30.24;38.08
42007;BME280;27696;42.704;23.304;2022-09-17T20:44:19;93927.38;;;30.05;38.49
42007;BME280;27696;42.704;23.304;2022-09-17T20:46:45;93952.03;;;30.10;37.88
42007;BME280;27696;42.704;23.304;2022-09-17T20:49:10;93953.34;;;30.19;38.20
42007;BME280;27696;42.704;23.304;2022-09-17T20:51:35;93939.16;;;29.25;39.56
42007;BME280;27696;42.704;23.304;2022-09-17T20:54:01;93941.63;;;30.01;38.44
42007;BME280;27696;42.704;23.304;2022-09-17T20:56:27;93934.72;;;30.20;37.92
42007;BME280;27696;42.704;23.304;2022-09-17T20:58:57;93927.88;;;29.76;39.00
42007;BME280;27696;42.704;23.304;2022-09-17T21:01:24;93920.09;;;29.64;39.08
42007;BME280;27696;42.704;23.304;2022-09-17T21:03:53;93924.38;;;29.48;39.25
42007;BME280;27696;42.704;23.304;2022-09-17T21:06:22;93914.34;;;29.00;40.30
42007;BME280;27696;42.704;23.304;2022-09-17T21:08:48;93915.97;;;29.56;39.23
42007;BME280;27696;42.704;23.304;2022-09-17T21:11:14;93921.47;;;29.73;38.87
42007;BME280;27696;42.704;23.304;2022-09-17T21:13:39;93923.00;;;29.84;38.49
42007;BME280;27696;42.704;23.304;2022-09-17T21:16:05;93914.03;;;30.21;37.93
42007;BME280;27696;42.704;23.304;2022-09-17T21:18:31;93920.84;;;29.92;38.18
42007;BME280;27696;42.704;23.304;2022-09-17T21:20:59;93914.94;;;29.51;38.98
42007;BME280;27696;42.704;23.304;2022-09-17T21:23:25;93903.28;;;29.98;38.69
42007;BME280;27696;42.704;23.304;2022-09-17T21:25:50;93913.53;;;30.05;37.75
42007;BME280;27696;42.704;23.304;2022-09-17T21:28:15;93906.03;;;30.62;37.42
42007;BME280;27696;42.704;23.304;2022-09-17T21:30:45;93890.53;;;30.49;37.73
42007;BME280;27696;42.704;23.304;2022-09-17T21:33:10;93881.00;;;29.78;38.19
42007;BME280;27696;42.704;23.304;2022-09-17T21:35:36;93901.81;;;30.34;36.81
42007;BME280;27696;42.704;23.304;2022-09-17T21:38:01;93887.91;;;29.59;38.86
42007;BME280;27696;42.704;23.304;2022-09-17T21:40:26;93892.59;;;29.67;39.28
42007;BME280;27696;42.704;23.304;2022-09-17T21:42:51;93896.88;;;29.50;38.03
42007;BME280;27696;42.704;23.304;2022-09-17T21:45:17;93903.69;;;30.68;36.33
42007;BME280;27696;42.704;23.304;2022-09-17T21:47:42;93907.97;;;30.32;37.47
42007;BME280;27696;42.704;23.304;2022-09-17T21:50:07;93898.97;;;29.87;37.69
42007;BME280;27696;42.704;23.304;2022-09-17T21:52:33;93894.34;;;29.44;38.26
42007;BME280;27696;42.704;23.304;2022-09-17T21:54:59;93902.69;;;29.54;38.58
42007;BME280;27696;42.704;23.304;2022-09-17T21:57:24;93899.03;;;29.69;38.13
42007;BME280;27696;42.704;23.304;2022-09-17T21:59:50;93902.63;;;29.89;37.94
42007;BME280;27696;42.704;23.304;2022-09-17T22:02:15;93909.22;;;29.94;37.80
42007;BME280;27696;42.704;23.304;2022-09-17T22:04:41;93913.44;;;30.22;37.63
42007;BME280;27696;42.704;23.304;2022-09-17T22:07:06;93902.63;;;30.07;37.67
42007;BME280;27696;42.704;23.304;2022-09-17T22:09:32;93915.09;;;29.36;38.25
42007;BME280;27696;42.704;23.304;2022-09-17T22:11:57;93911.81;;;29.92;37.44
42007;BME280;27696;42.704;23.304;2022-09-17T22:14:23;93910.38;;;29.28;38.60
42007;BME280;27696;42.704;23.304;2022-09-17T22:16:49;93909.75;;;30.10;36.70
42007;BME280;27696;42.704;23.304;2022-09-17T22:19:17;93906.97;;;30.47;36.52
42007;BME280;27696;42.704;23.304;2022-09-17T22:21:44;93906.28;;;30.19;37.02
42007;BME280;27696;42.704;23.304;2022-09-17T22:24:10;93915.34;;;30.57;36.17
42007;BME280;27696;42.704;23.304;2022-09-17T22:26:37;93926.72;;;30.61;36.82
42007;BME280;27696;42.704;23.304;2022-09-17T22:29:04;93904.31;;;30.39;36.37
42007;BME280;27696;42.704;23.304;2022-09-17T22:31:30;93911.72;;;29.72;38.00
42007;BME280;27696;42.704;23.304;2022-09-17T22:33:55;93914.03;;;30.21;37.24
42007;BME280;27696;42.704;23.304;2022-09-17T22:36:22;93918.84;;;30.67;36.25
42007;BME280;27696;42.704;23.304;2022-09-17T22:38:48;93914.53;;;30.84;36.19
42007;BME280;27696;42.704;23.304;2022-09-17T22:41:15;93923.75;;;30.12;37.04
42007;BME280;27696;42.704;23.304;2022-09-17T22:43:41;93910.34;;;30.18;36.34
42007;BME280;27696;42.704;23.304;2022-09-17T22:46:15;93911.31;;;30.03;37.57
42007;BME280;27696;42.704;23.304;2022-09-17T22:48:40;93909.22;;;30.21;37.42
42007;BME280;27696;42.704;23.304;2022-09-17T22:51:06;93919.31;;;30.36;36.90
42007;BME280;27696;42.704;23.304;2022-09-17T22:53:31;93912.47;;;30.00;37.33
42007;BME280;27696;42.704;23.304;2022-09-17T22:55:57;93910.34;;;30.18;37.48
42007;BME280;27696;42.704;23.304;2022-09-17T22:58:23;93920.38;;;29.86;38.05
42007;BME280;27696;42.704;23.304;2022-09-17T23:01:00;93924.06;;;29.89;37.82
42007;BME280;27696;42.704;23.304;2022-09-17T23:03:26;93915.69;;;29.79;37.96
42007;BME280;27696;42.704;23.304;2022-09-17T23:05:51;93923.59;;;29.65;38.11
42007;BME280;27696;42.704;23.304;2022-09-17T23:08:18;93909.16;;;29.39;38.11
42007;BME280;27696;42.704;23.304;2022-09-17T23:10:43;93924.66;;;29.70;38.07
42007;BME280;27696;42.704;23.304;2022-09-17T23:13:09;93933.28;;;29.56;38.17
42007;BME280;27696;42.704;23.304;2022-09-17T23:15:35;93930.31;;;29.89;37.87
42007;BME280;27696;42.704;23.304;2022-09-17T23:18:00;93930.47;;;28.18;40.55
42007;BME280;27696;42.704;23.304;2022-09-17T23:20:26;93924.19;;;29.11;39.00
42007;BME280;27696;42.704;23.304;2022-09-17T23:22:51;93932.34;;;29.44;38.33
42007;BME280;27696;42.704;23.304;2022-09-17T23:25:16;93946.72;;;29.25;38.59
42007;BME280;27696;42.704;23.304;2022-09-17T23:27:42;93937.03;;;29.16;38.90
42007;BME280;27696;42.704;23.304;2022-09-17T23:30:07;93948.22;;;28.83;39.31
42007;BME280;27696;42.704;23.304;2022-09-17T23:32:32;93950.88;;;29.33;38.14
42007;BME280;27696;42.704;23.304;2022-09-17T23:34:58;93944.09;;;29.09;38.33